createdAt,value
2019-02-18T00:01:25.649Z,97959.53
2019-02-18T00:04:32.215Z,97962.60
2019-02-18T00:07:38.772Z,97956.11
2019-02-18T00:10:45.554Z,97965.28
2019-02-18T00:13:52.578Z,97965.46
2019-02-18T00:16:59.408Z,97974.72
2019-02-18T00:20:06.098Z,97967.75
2019-02-18T00:23:12.497Z,97973.04
2019-02-18T00:26:19.112Z,97974.11
2019-02-18T00:29:25.390Z,97971.39
2019-02-18T00:32:31.612Z,97965.59
2019-02-18T00:35:38.105Z,97964.53
2019-02-18T00:38:44.842Z,97960.24
2019-02-18T00:41:51.567Z,97957.86
2019-02-18T00:44:57.972Z,97959.23
2019-02-18T00:48:04.235Z,97959.10
2019-02-18T00:51:11.209Z,97960.45
2019-02-18T00:54:17.755Z,97960.53
2019-02-18T00:57:24.252Z,97957.41
2019-02-18T01:00:31.228Z,97954.12
2019-02-18T01:03:37.510Z,97954.27
2019-02-18T01:06:43.844Z,97955.64
2019-02-18T01:09:50.357Z,97948.05
2019-02-18T01:12:57.134Z,97954.33
2019-02-18T01:16:03.468Z,97946.88
2019-02-18T01:19:09.961Z,97940.23
2019-02-18T01:22:16.260Z,97943.50
2019-02-18T01:25:22.960Z,97951.02
2019-02-18T01:28:29.686Z,97945.45
2019-02-18T01:31:37.075Z,97940.41
2019-02-18T01:34:43.420Z,97944.42
2019-02-18T01:37:49.829Z,97940.88
2019-02-18T01:40:56.509Z,97934.06
2019-02-18T01:44:03.022Z,97940.30
2019-02-18T01:47:09.735Z,97937.63
2019-02-18T01:50:17.020Z,97930.96
2019-02-18T01:53:23.759Z,97934.94
2019-02-18T01:56:31.302Z,97922.09
2019-02-18T01:59:38.423Z,97924.55
2019-02-18T02:02:45.579Z,97931.69
2019-02-18T02:05:52.052Z,97925.12
2019-02-18T02:08:59.371Z,97924.06
2019-02-18T02:12:07.804Z,97928.00
2019-02-18T02:15:20.366Z,97926.70
2019-02-18T02:18:27.129Z,97922.48
2019-02-18T02:21:34.927Z,97919.84
2019-02-18T02:24:42.026Z,97917.06
2019-02-18T02:27:48.505Z,97923.98
2019-02-18T02:30:55.109Z,97917.19
2019-02-18T02:34:01.788Z,97920.24
2019-02-18T02:37:08.399Z,97914.73
2019-02-18T02:40:14.967Z,97924.12
2019-02-18T02:43:21.631Z,97921.72
2019-02-18T02:46:28.381Z,97918.66
2019-02-18T02:49:35.208Z,97914.77
2019-02-18T02:52:41.698Z,97910.50
2019-02-18T02:55:48.919Z,97911.75
2019-02-18T02:58:55.606Z,97908.04
2019-02-18T03:02:02.133Z,97905.00
2019-02-18T03:05:09.363Z,97906.21
2019-02-18T03:08:20.305Z,97899.86
2019-02-18T03:11:23.943Z,97898.84
2019-02-18T03:14:30.436Z,97903.56
2019-02-18T03:17:36.716Z,97895.97
2019-02-18T03:20:42.988Z,97899.28
2019-02-18T03:23:49.839Z,97891.18
2019-02-18T03:26:56.315Z,97894.74
2019-02-18T03:30:55.537Z,97887.31
2019-02-18T03:34:24.108Z,97886.25
2019-02-18T03:37:30.647Z,97883.66
2019-02-18T03:40:38.498Z,97893.59
2019-02-18T03:43:45.280Z,97885.48
2019-02-18T03:46:51.988Z,97891.44
2019-02-18T03:49:58.574Z,97888.45
2019-02-18T03:53:05.419Z,97890.85
2019-02-18T03:56:12.303Z,97882.19
2019-02-18T03:59:18.752Z,97887.88
2019-02-18T04:02:25.330Z,97885.68
2019-02-18T04:05:32.014Z,97887.89
2019-02-18T04:08:42.983Z,97890.98
2019-02-18T04:11:46.878Z,97894.94
2019-02-18T04:14:53.486Z,97887.61
2019-02-18T04:18:00.533Z,97896.64
2019-02-18T04:21:07.009Z,97893.38
2019-02-18T04:24:13.662Z,97896.10
2019-02-18T04:27:19.958Z,97897.33
2019-02-18T04:30:26.451Z,97898.19
2019-02-18T04:33:32.848Z,97906.81
2019-02-18T04:36:39.513Z,97907.64
2019-02-18T04:39:46.127Z,97906.39
2019-02-18T04:42:52.916Z,97901.73
2019-02-18T04:45:59.410Z,97897.02
2019-02-18T04:49:06.014Z,97896.27
2019-02-18T04:52:13.340Z,97896.09
2019-02-18T04:55:19.884Z,97890.05
2019-02-18T04:58:26.573Z,97888.07
2019-02-18T05:01:33.628Z,97889.95
2019-02-18T05:04:41.649Z,97892.41
2019-02-18T05:07:48.051Z,97897.55
2019-02-18T05:10:54.340Z,97897.66
2019-02-18T05:14:01.268Z,97902.65
2019-02-18T05:17:07.812Z,97903.56
2019-02-18T05:20:15.425Z,97897.72
2019-02-18T05:23:22.020Z,97896.16
2019-02-18T05:26:28.675Z,97894.99
2019-02-18T05:29:34.869Z,97899.11
2019-02-18T05:32:41.509Z,97893.14
2019-02-18T05:35:49.082Z,97902.27
2019-02-18T05:38:56.432Z,97897.08
2019-02-18T05:42:02.995Z,97902.78
2019-02-18T05:45:09.511Z,97899.28
2019-02-18T05:48:16.233Z,97899.73
2019-02-18T05:51:22.790Z,97903.52
2019-02-18T05:54:29.492Z,97895.23
2019-02-18T05:57:36.414Z,97894.32
2019-02-18T06:00:42.940Z,97893.53
2019-02-18T06:03:49.389Z,97899.91
2019-02-18T06:06:56.099Z,97898.22
2019-02-18T06:10:02.748Z,97897.36
2019-02-18T06:13:09.349Z,97899.02
2019-02-18T06:16:15.837Z,97895.83
2019-02-18T06:19:22.147Z,97905.59
2019-02-18T06:22:28.550Z,97903.11
2019-02-18T06:25:35.002Z,97908.52
2019-02-18T06:28:41.750Z,97904.67
2019-02-18T06:31:49.195Z,97900.74
2019-02-18T06:34:55.834Z,97901.68
2019-02-18T06:38:02.376Z,97899.95
2019-02-18T06:41:09.227Z,97900.58
2019-02-18T06:44:16.729Z,97904.35
2019-02-18T06:47:26.021Z,97904.81
2019-02-18T06:50:32.725Z,97905.63
2019-02-18T06:53:39.225Z,97911.55
2019-02-18T06:56:55.936Z,97905.48
2019-02-18T07:00:10.175Z,97911.84
2019-02-18T07:03:25.339Z,97912.28
2019-02-18T07:06:50.652Z,97918.28
2019-02-18T07:10:19.073Z,97916.41
2019-02-18T07:13:26.254Z,97917.44
2019-02-18T07:16:32.822Z,97917.25
2019-02-18T07:19:40.425Z,97921.84
2019-02-18T07:22:47.359Z,97916.83
2019-02-18T07:25:54.066Z,97917.28
2019-02-18T07:29:00.558Z,97915.45
2019-02-18T07:32:07.100Z,97917.30
2019-02-18T07:35:13.548Z,97921.33
2019-02-18T07:38:20.259Z,97911.40
2019-02-18T07:41:27.429Z,97914.38
2019-02-18T07:44:34.846Z,97923.71
2019-02-18T07:47:42.395Z,97915.98
2019-02-18T07:50:48.920Z,97916.33
2019-02-18T07:53:55.394Z,97914.89
2019-02-18T07:57:02.043Z,97909.92
2019-02-18T08:00:12.950Z,97907.20
2019-02-18T08:03:19.898Z,97903.19
2019-02-18T08:06:26.429Z,97905.86
2019-02-18T08:09:32.874Z,97903.70
2019-02-18T08:12:40.139Z,97897.25
2019-02-18T08:15:47.552Z,97898.52
2019-02-18T08:18:54.159Z,97891.55
2019-02-18T08:22:00.603Z,97893.69
2019-02-18T08:25:07.863Z,97883.09
2019-02-18T08:28:14.759Z,97883.66
2019-02-18T08:31:21.366Z,97881.16
2019-02-18T08:34:27.996Z,97877.10
2019-02-18T08:37:34.836Z,97871.02
2019-02-18T08:40:41.437Z,97872.88
2019-02-18T08:43:47.964Z,97871.58
2019-02-18T08:46:54.418Z,97869.84
2019-02-18T08:50:01.088Z,97866.53
2019-02-18T08:53:08.012Z,97856.17
2019-02-18T08:56:14.701Z,97859.70
2019-02-18T08:59:21.648Z,97859.55
2019-02-18T09:02:27.993Z,97852.22
2019-02-18T09:05:34.643Z,97848.91
2019-02-18T09:08:40.984Z,97847.83
2019-02-18T09:11:47.324Z,97846.35
2019-02-18T09:14:54.183Z,97834.47
2019-02-18T09:18:03.194Z,97831.41
2019-02-18T09:21:10.403Z,97834.80
2019-02-18T09:24:25.318Z,97832.91
2019-02-18T09:27:32.470Z,97829.50
2019-02-18T09:30:41.877Z,97822.28
2019-02-18T09:33:49.237Z,97817.34
2019-02-18T09:36:57.355Z,97809.70
2019-02-18T09:40:03.831Z,97808.67
2019-02-18T09:43:11.075Z,97809.40
2019-02-18T09:46:17.704Z,97804.01
2019-02-18T09:49:24.685Z,97808.27
2019-02-18T09:52:31.408Z,97808.91
2019-02-18T09:55:37.937Z,97796.45
2019-02-18T09:58:44.518Z,97797.76
2019-02-18T10:01:51.433Z,97797.17
2019-02-18T10:04:57.971Z,97790.75
2019-02-18T10:08:04.856Z,97788.58
2019-02-18T10:11:11.529Z,97783.23
2019-02-18T10:14:18.340Z,97781.91
2019-02-18T10:17:24.822Z,97780.58
2019-02-18T10:20:31.582Z,97783.10
2019-02-18T10:23:38.500Z,97779.01
2019-02-18T10:26:45.130Z,97780.26
2019-02-18T10:29:51.816Z,97786.23
2019-02-18T10:32:58.495Z,97784.99
2019-02-18T10:36:06.454Z,97777.91
2019-02-18T10:39:13.306Z,97775.16
2019-02-18T10:42:19.741Z,97772.38
2019-02-18T10:45:26.262Z,97769.05
2019-02-18T10:48:34.399Z,97773.17
2019-02-18T10:51:43.494Z,97770.52
2019-02-18T10:54:50.506Z,97777.11
2019-02-18T10:57:57.303Z,97768.61
2019-02-18T11:01:04.287Z,97765.06
2019-02-18T11:04:10.809Z,97755.44
2019-02-18T11:07:17.780Z,97751.16
2019-02-18T11:10:24.755Z,97744.02
2019-02-18T11:13:31.796Z,97739.26
2019-02-18T11:16:38.973Z,97743.83
2019-02-18T11:19:46.760Z,97728.15
2019-02-18T11:22:53.547Z,97731.94
2019-02-18T11:26:00.385Z,97724.08
2019-02-18T11:29:06.761Z,97725.48
2019-02-18T11:32:13.764Z,97719.03
2019-02-18T11:35:20.396Z,97712.23
2019-02-18T11:38:26.931Z,97717.39
2019-02-18T11:41:34.959Z,97712.05
2019-02-18T11:44:41.642Z,97715.31
2019-02-18T11:47:48.082Z,97706.70
2019-02-18T11:50:54.873Z,97700.53
2019-02-18T11:54:01.805Z,97696.77
2019-02-18T11:57:08.282Z,97692.20
2019-02-18T12:00:18.114Z,97684.59
2019-02-18T12:03:24.649Z,97684.67
2019-02-18T12:06:31.790Z,97678.69
2019-02-18T12:09:38.948Z,97678.98
2019-02-18T12:12:49.847Z,97678.85
2019-02-18T12:15:58.192Z,97678.95
2019-02-18T12:19:06.075Z,97665.12
2019-02-18T12:22:13.446Z,97662.72
2019-02-18T12:25:21.222Z,97662.67
2019-02-18T12:28:28.740Z,97659.98
2019-02-18T12:31:36.488Z,97644.73
2019-02-18T12:34:43.166Z,97650.06
2019-02-18T12:37:55.378Z,97643.05
2019-02-18T12:40:58.129Z,97639.80
2019-02-18T12:44:04.823Z,97634.96
2019-02-18T12:47:11.220Z,97626.09
2019-02-18T12:50:18.101Z,97621.04
2019-02-18T12:53:24.587Z,97617.10
2019-02-18T12:56:32.181Z,97616.69
2019-02-18T12:59:38.975Z,97617.27
2019-02-18T13:02:45.868Z,97602.52
2019-02-18T13:05:52.685Z,97601.91
2019-02-18T13:08:59.653Z,97599.70
2019-02-18T13:12:07.068Z,97593.59
2019-02-18T13:15:13.723Z,97597.58
2019-02-18T13:18:20.642Z,97585.80
2019-02-18T13:21:28.303Z,97588.62
2019-02-18T13:24:36.728Z,97586.80
2019-02-18T13:27:44.823Z,97583.77
2019-02-18T13:30:51.181Z,97575.64
2019-02-18T13:33:57.935Z,97574.86
2019-02-18T13:37:04.477Z,97573.61
2019-02-18T13:40:11.587Z,97574.56
2019-02-18T13:43:18.099Z,97570.61
2019-02-18T13:46:24.288Z,97561.83
2019-02-18T13:49:30.819Z,97556.09
2019-02-18T13:52:37.888Z,97560.33
2019-02-18T13:55:44.173Z,97564.20
2019-02-18T13:58:50.744Z,97557.33
2019-02-18T14:01:57.494Z,97570.27
2019-02-18T14:05:04.124Z,97567.27
2019-02-18T14:08:11.061Z,97562.41
2019-02-18T14:11:17.715Z,97566.62
2019-02-18T14:14:24.784Z,97565.01
2019-02-18T14:17:31.505Z,97565.01
2019-02-18T14:20:38.225Z,97570.75
2019-02-18T14:23:44.813Z,97567.73
2019-02-18T14:26:51.216Z,97572.22
2019-02-18T14:29:58.109Z,97576.55
2019-02-18T14:33:04.723Z,97569.14
2019-02-18T14:36:12.905Z,97577.97
2019-02-18T14:39:24.243Z,97572.44
2019-02-18T14:42:30.810Z,97581.78
2019-02-18T14:45:37.972Z,97574.80
2019-02-18T14:48:44.988Z,97563.89
2019-02-18T14:51:53.271Z,97567.38
2019-02-18T14:54:59.845Z,97569.00
2019-02-18T14:58:06.757Z,97558.87
2019-02-18T15:01:13.455Z,97562.06
2019-02-18T15:04:20.630Z,97551.59
2019-02-18T15:07:27.482Z,97554.83
2019-02-18T15:10:33.848Z,97559.95
2019-02-18T15:13:40.408Z,97553.33
2019-02-18T15:16:47.085Z,97555.47
2019-02-18T15:19:53.429Z,97551.07
2019-02-18T15:23:00.449Z,97551.97
2019-02-18T15:26:07.643Z,97553.38
2019-02-18T15:29:14.516Z,97549.12
2019-02-18T15:32:21.196Z,97548.38
2019-02-18T15:35:27.887Z,97548.49
2019-02-18T15:38:34.430Z,97545.03
2019-02-18T15:41:41.519Z,97545.78
2019-02-18T15:44:49.265Z,97545.48
2019-02-18T15:48:01.552Z,97537.27
2019-02-18T15:51:04.007Z,97538.75
2019-02-18T15:54:11.254Z,97535.95
2019-02-18T15:57:19.864Z,97542.10
2019-02-18T16:00:26.598Z,97547.27
2019-02-18T16:03:33.185Z,97545.41
2019-02-18T16:06:39.642Z,97543.95
2019-02-18T16:09:48.103Z,97550.00
2019-02-18T16:12:57.078Z,97548.27
2019-02-18T16:16:03.700Z,97541.92
2019-02-18T16:19:10.299Z,97538.47
2019-02-18T16:22:16.962Z,97537.16
2019-02-18T16:25:23.693Z,97542.62
2019-02-18T16:28:30.165Z,97537.05
2019-02-18T16:31:37.680Z,97543.33
2019-02-18T16:34:44.647Z,97544.06
2019-02-18T16:37:52.388Z,97546.09
2019-02-18T16:40:59.742Z,97545.45
2019-02-18T16:44:06.858Z,97542.27
2019-02-18T16:47:13.623Z,97549.42
2019-02-18T16:50:20.382Z,97543.67
2019-02-18T16:53:27.086Z,97539.83
2019-02-18T16:56:34.650Z,97553.25
2019-02-18T16:59:41.437Z,97550.10
2019-02-18T17:02:48.574Z,97546.83
2019-02-18T17:05:55.250Z,97550.16
2019-02-18T17:09:02.040Z,97553.09
2019-02-18T17:12:11.571Z,97557.25
2019-02-18T17:15:22.149Z,97554.74
2019-02-18T17:18:28.507Z,97561.03
2019-02-18T17:21:36.051Z,97559.95
2019-02-18T17:24:42.888Z,97564.98
2019-02-18T17:27:49.329Z,97555.92
2019-02-18T17:30:56.271Z,97555.47
2019-02-18T17:34:02.954Z,97554.67
2019-02-18T17:37:09.848Z,97556.07
2019-02-18T17:40:16.865Z,97555.39
2019-02-18T17:43:23.609Z,97548.92
2019-02-18T17:46:30.017Z,97545.83
2019-02-18T17:49:37.092Z,97550.19
2019-02-18T17:52:43.556Z,97538.32
2019-02-18T17:55:50.874Z,97545.75
2019-02-18T17:58:58.364Z,97545.02
2019-02-18T18:02:04.827Z,97551.19
2019-02-18T18:05:12.394Z,97545.06
2019-02-18T18:08:19.229Z,97550.75
2019-02-18T18:11:25.766Z,97541.47
2019-02-18T18:14:32.289Z,97545.89
2019-02-18T18:17:39.214Z,97549.13
2019-02-18T18:20:46.408Z,97541.05
2019-02-18T18:23:52.793Z,97535.30
2019-02-18T18:26:59.532Z,97537.26
2019-02-18T18:30:06.008Z,97530.63
2019-02-18T18:33:12.332Z,97535.92
2019-02-18T18:36:19.069Z,97534.61
2019-02-18T18:39:25.439Z,97537.68
2019-02-18T18:42:32.169Z,97529.39
2019-02-18T18:45:38.758Z,97531.41
2019-02-18T18:48:45.731Z,97528.59
2019-02-18T18:51:53.101Z,97528.73
2019-02-18T18:55:00.148Z,97526.31
2019-02-18T18:58:06.809Z,97525.38
2019-02-18T19:01:14.742Z,97520.53
2019-02-18T19:04:21.384Z,97522.76
2019-02-18T19:07:27.921Z,97520.98
2019-02-18T19:10:35.063Z,97517.53
2019-02-18T19:13:45.161Z,97519.89
2019-02-18T19:16:51.978Z,97511.47
2019-02-18T19:19:59.278Z,97508.98
2019-02-18T19:23:06.578Z,97509.27
2019-02-18T19:26:13.325Z,97508.27
2019-02-18T19:29:21.139Z,97504.05
2019-02-18T19:32:27.670Z,97510.91
2019-02-18T19:35:35.732Z,97499.16
2019-02-18T19:38:43.261Z,97496.79
2019-02-18T19:41:51.552Z,97501.50
2019-02-18T19:44:58.860Z,97491.77
2019-02-18T19:48:06.114Z,97493.98
2019-02-18T19:51:13.195Z,97498.69
2019-02-18T19:54:20.180Z,97491.57
2019-02-18T19:57:28.004Z,97481.16
2019-02-18T20:00:34.989Z,97479.56
2019-02-18T20:03:41.618Z,97481.02
2019-02-18T20:06:47.970Z,97485.34
2019-02-18T20:09:54.513Z,97484.50
2019-02-18T20:13:01.438Z,97482.23
2019-02-18T20:16:09.296Z,97488.16
2019-02-18T20:19:18.897Z,97487.31
2019-02-18T20:22:25.733Z,97484.27
2019-02-18T20:25:32.927Z,97490.34
2019-02-18T20:28:39.275Z,97478.20
2019-02-18T20:31:47.222Z,97480.25
2019-02-18T20:34:53.915Z,97478.53
2019-02-18T20:38:00.757Z,97477.20
2019-02-18T20:41:07.312Z,97479.34
2019-02-18T20:44:14.036Z,97477.03
2019-02-18T20:47:21.522Z,97480.86
2019-02-18T20:50:29.345Z,97473.17
2019-02-18T20:53:36.589Z,97476.85
2019-02-18T20:56:43.104Z,97474.08
2019-02-18T20:59:49.924Z,97472.71
2019-02-18T21:02:57.003Z,97475.73
2019-02-18T21:06:03.954Z,97473.22
2019-02-18T21:09:10.736Z,97474.91
2019-02-18T21:12:20.890Z,97469.78
2019-02-18T21:15:28.107Z,97472.34
2019-02-18T21:18:34.727Z,97468.45
2019-02-18T21:21:42.048Z,97467.60
2019-02-18T21:24:49.176Z,97467.22
2019-02-18T21:27:55.686Z,97471.58
2019-02-18T21:31:03.790Z,97465.22
2019-02-18T21:34:10.729Z,97461.88
2019-02-18T21:37:17.020Z,97462.83
2019-02-18T21:40:23.664Z,97463.00
2019-02-18T21:43:30.025Z,97463.74
2019-02-18T21:46:37.227Z,97466.55
2019-02-18T21:49:43.666Z,97460.12
2019-02-18T21:52:50.425Z,97464.55
2019-02-18T21:55:57.035Z,97461.20
2019-02-18T21:59:03.714Z,97453.97
2019-02-18T22:02:10.402Z,97448.00
2019-02-18T22:05:17.467Z,97447.09
2019-02-18T22:08:24.463Z,97444.53
2019-02-18T22:11:31.022Z,97443.69
2019-02-18T22:14:37.841Z,97446.25
2019-02-18T22:17:44.716Z,97443.66
2019-02-18T22:20:51.743Z,97447.90
2019-02-18T22:23:58.358Z,97446.81
2019-02-18T22:27:05.299Z,97443.23
2019-02-18T22:30:12.735Z,97441.91
2019-02-18T22:33:19.368Z,97440.64
2019-02-18T22:36:26.294Z,97433.47
2019-02-18T22:39:33.005Z,97438.53
2019-02-18T22:42:39.731Z,97436.77
2019-02-18T22:45:46.757Z,97434.68
2019-02-18T22:48:53.599Z,97430.52
2019-02-18T22:52:00.762Z,97431.69
2019-02-18T22:55:10.534Z,97432.02
2019-02-18T22:58:17.317Z,97431.75
2019-02-18T23:01:25.278Z,97435.06
2019-02-18T23:04:32.353Z,97430.45
2019-02-18T23:07:39.860Z,97430.27
2019-02-18T23:10:46.499Z,97422.53
2019-02-18T23:13:53.684Z,97426.28
2019-02-18T23:17:00.326Z,97426.05
2019-02-18T23:20:07.085Z,97427.70
2019-02-18T23:23:14.269Z,97423.09
2019-02-18T23:26:21.050Z,97423.41
2019-02-18T23:29:27.465Z,97429.33
2019-02-18T23:32:34.067Z,97428.97
2019-02-18T23:35:40.845Z,97433.52
2019-02-18T23:38:47.690Z,97435.48
2019-02-18T23:41:54.459Z,97432.11
2019-02-18T23:45:01.575Z,97424.66
2019-02-18T23:48:07.906Z,97427.22
2019-02-18T23:51:15.537Z,97423.98
2019-02-18T23:54:22.039Z,97423.06
2019-02-18T23:57:28.908Z,97424.48
